sensor_id;sensor_type;location;lat;lon;timestamp;P1;durP1;ratioP1;P2;durP2;ratioP2
56997;SDS011;42890;44.244;22.530;2022-12-15T00:00:51;42.22;;;37.80;;
56997;SDS011;42890;44.244;22.530;2022-12-15T00:03:36;42.00;;;37.58;;
56997;SDS011;42890;44.244;22.530;2022-12-15T00:06:20;42.55;;;38.15;;
56997;SDS011;42890;44.244;22.530;2022-12-15T00:09:05;40.63;;;36.30;;
56997;SDS011;42890;44.244;22.530;2022-12-15T00:11:50;43.47;;;38.83;;
56997;SDS011;42890;44.244;22.530;2022-12-15T00:14:34;41.55;;;37.45;;
56997;SDS011;42890;44.244;22.530;2022-12-15T00:17:19;38.08;;;34.22;;
56997;SDS011;42890;44.244;22.530;2022-12-15T00:20:04;37.47;;;33.83;;
56997;SDS011;42890;44.244;22.530;2022-12-15T00:22:48;36.33;;;32.60;;
56997;SDS011;42890;44.244;22.530;2022-12-15T00:25:33;34.92;;;31.45;;
56997;SDS011;42890;44.244;22.530;2022-12-15T00:28:18;33.72;;;30.40;;
56997;SDS011;42890;44.244;22.530;2022-12-15T00:31:02;33.53;;;30.10;;
56997;SDS011;42890;44.244;22.530;2022-12-15T00:33:47;32.50;;;29.17;;
56997;SDS011;42890;44.244;22.530;2022-12-15T00:36:32;30.83;;;27.63;;
56997;SDS011;42890;44.244;22.530;2022-12-15T00:39:17;33.83;;;30.27;;
56997;SDS011;42890;44.244;22.530;2022-12-15T00:41:43;30.55;;;27.48;;
56997;SDS011;42890;44.244;22.530;2022-12-15T00:44:09;30.90;;;27.80;;
56997;SDS011;42890;44.244;22.530;2022-12-15T00:46:35;29.77;;;26.77;;
56997;SDS011;42890;44.244;22.530;2022-12-15T00:49:23;29.42;;;26.45;;
56997;SDS011;42890;44.244;22.530;2022-12-15T00:52:08;29.95;;;26.73;;
56997;SDS011;42890;44.244;22.530;2022-12-15T00:54:53;27.45;;;24.52;;
56997;SDS011;42890;44.244;22.530;2022-12-15T00:57:38;26.65;;;23.75;;
56997;SDS011;42890;44.244;22.530;2022-12-15T01:00:23;27.27;;;24.38;;
56997;SDS011;42890;44.244;22.530;2022-12-15T01:03:09;26.75;;;23.95;;
56997;SDS011;42890;44.244;22.530;2022-12-15T01:05:54;26.70;;;24.00;;
56997;SDS011;42890;44.244;22.530;2022-12-15T01:08:38;26.65;;;24.08;;
56997;SDS011;42890;44.244;22.530;2022-12-15T01:11:23;29.92;;;26.70;;
56997;SDS011;42890;44.244;22.530;2022-12-15T01:14:08;26.73;;;24.02;;
56997;SDS011;42890;44.244;22.530;2022-12-15T01:16:52;26.27;;;23.75;;
56997;SDS011;42890;44.244;22.530;2022-12-15T01:19:37;31.85;;;28.65;;
56997;SDS011;42890;44.244;22.530;2022-12-15T01:22:22;29.67;;;26.58;;
56997;SDS011;42890;44.244;22.530;2022-12-15T01:24:48;27.10;;;24.40;;
56997;SDS011;42890;44.244;22.530;2022-12-15T01:27:14;23.90;;;21.60;;
56997;SDS011;42890;44.244;22.530;2022-12-15T01:29:41;24.05;;;21.65;;
56997;SDS011;42890;44.244;22.530;2022-12-15T01:32:07;30.63;;;27.40;;
56997;SDS011;42890;44.244;22.530;2022-12-15T01:34:33;25.08;;;22.63;;
56997;SDS011;42890;44.244;22.530;2022-12-15T01:36:59;21.90;;;19.55;;
56997;SDS011;42890;44.244;22.530;2022-12-15T01:39:25;21.73;;;19.67;;
56997;SDS011;42890;44.244;22.530;2022-12-15T01:42:11;21.65;;;19.67;;
56997;SDS011;42890;44.244;22.530;2022-12-15T01:44:38;23.55;;;21.15;;
56997;SDS011;42890;44.244;22.530;2022-12-15T01:47:04;25.33;;;22.70;;
56997;SDS011;42890;44.244;22.530;2022-12-15T01:49:30;22.25;;;20.05;;
56997;SDS011;42890;44.244;22.530;2022-12-15T01:51:58;29.35;;;24.67;;
56997;SDS011;42890;44.244;22.530;2022-12-15T01:54:26;27.58;;;24.77;;
56997;SDS011;42890;44.244;22.530;2022-12-15T01:56:54;29.08;;;26.17;;
56997;SDS011;42890;44.244;22.530;2022-12-15T01:59:23;25.38;;;22.55;;
56997;SDS011;42890;44.244;22.530;2022-12-15T02:01:51;21.35;;;19.25;;
56997;SDS011;42890;44.244;22.530;2022-12-15T02:04:18;19.50;;;17.58;;
56997;SDS011;42890;44.244;22.530;2022-12-15T02:06:45;19.15;;;17.40;;
56997;SDS011;42890;44.244;22.530;2022-12-15T02:09:11;25.95;;;23.27;;
56997;SDS011;42890;44.244;22.530;2022-12-15T02:11:42;17.70;;;15.93;;
56997;SDS011;42890;44.244;22.530;2022-12-15T02:14:09;16.77;;;15.18;;
56997;SDS011;42890;44.244;22.530;2022-12-15T02:32:12;48.05;;;41.65;;
56997;SDS011;42890;44.244;22.530;2022-12-15T02:34:40;87.95;;;62.72;;
56997;SDS011;42890;44.244;22.530;2022-12-15T02:37:09;127.10;;;81.57;;
56997;SDS011;42890;44.244;22.530;2022-12-15T02:39:36;38.70;;;33.55;;
56997;SDS011;42890;44.244;22.530;2022-12-15T02:42:03;43.15;;;35.90;;
56997;SDS011;42890;44.244;22.530;2022-12-15T02:44:30;154.40;;;77.93;;
56997;SDS011;42890;44.244;22.530;2022-12-15T02:47:14;180.60;;;88.13;;
56997;SDS011;42890;44.244;22.530;2022-12-15T03:00:00;79.32;;;65.00;;
56997;SDS011;42890;44.244;22.530;2022-12-15T03:02:28;99.43;;;70.43;;
56997;SDS011;42890;44.244;22.530;2022-12-15T03:04:56;206.90;;;138.52;;
56997;SDS011;42890;44.244;22.530;2022-12-15T03:07:22;112.93;;;84.95;;
56997;SDS011;42890;44.244;22.530;2022-12-15T03:09:53;150.40;;;100.20;;
56997;SDS011;42890;44.244;22.530;2022-12-15T03:12:20;100.43;;;73.22;;
56997;SDS011;42890;44.244;22.530;2022-12-15T03:14:46;85.15;;;66.47;;
56997;SDS011;42890;44.244;22.530;2022-12-15T03:17:12;85.32;;;75.13;;
56997;SDS011;42890;44.244;22.530;2022-12-15T03:19:38;66.32;;;59.40;;
56997;SDS011;42890;44.244;22.530;2022-12-15T03:22:04;158.82;;;122.88;;
56997;SDS011;42890;44.244;22.530;2022-12-15T03:24:31;77.63;;;68.30;;
56997;SDS011;42890;44.244;22.530;2022-12-15T03:26:57;98.53;;;76.47;;
56997;SDS011;42890;44.244;22.530;2022-12-15T03:29:23;92.18;;;73.45;;
56997;SDS011;42890;44.244;22.530;2022-12-15T03:31:49;78.13;;;66.90;;
56997;SDS011;42890;44.244;22.530;2022-12-15T03:34:15;110.28;;;80.63;;
56997;SDS011;42890;44.244;22.530;2022-12-15T03:36:42;139.23;;;88.95;;
56997;SDS011;42890;44.244;22.530;2022-12-15T03:39:08;145.13;;;93.65;;
56997;SDS011;42890;44.244;22.530;2022-12-15T03:41:34;67.05;;;58.03;;
56997;SDS011;42890;44.244;22.530;2022-12-15T03:44:00;103.20;;;74.25;;
56997;SDS011;42890;44.244;22.530;2022-12-15T03:46:26;204.18;;;116.80;;
56997;SDS011;42890;44.244;22.530;2022-12-15T03:48:53;155.13;;;99.80;;
56997;SDS011;42890;44.244;22.530;2022-12-15T03:51:19;39.67;;;35.42;;
56997;SDS011;42890;44.244;22.530;2022-12-15T03:53:45;35.30;;;31.73;;
56997;SDS011;42890;44.244;22.530;2022-12-15T03:56:13;30.35;;;27.35;;
56997;SDS011;42890;44.244;22.530;2022-12-15T03:58:39;28.77;;;26.00;;
56997;SDS011;42890;44.244;22.530;2022-12-15T04:01:16;29.13;;;26.10;;
56997;SDS011;42890;44.244;22.530;2022-12-15T04:03:43;34.90;;;31.52;;
56997;SDS011;42890;44.244;22.530;2022-12-15T04:06:09;22.00;;;19.85;;
56997;SDS011;42890;44.244;22.530;2022-12-15T04:08:36;17.42;;;15.82;;
56997;SDS011;42890;44.244;22.530;2022-12-15T04:11:02;22.77;;;19.58;;
56997;SDS011;42890;44.244;22.530;2022-12-15T04:13:28;49.50;;;30.45;;
56997;SDS011;42890;44.244;22.530;2022-12-15T04:15:54;64.35;;;38.28;;
56997;SDS011;42890;44.244;22.530;2022-12-15T04:18:20;102.05;;;46.08;;
56997;SDS011;42890;44.244;22.530;2022-12-15T04:20:46;39.70;;;29.45;;
56997;SDS011;42890;44.244;22.530;2022-12-15T04:23:13;33.65;;;29.20;;
56997;SDS011;42890;44.244;22.530;2022-12-15T04:25:39;44.25;;;39.55;;
56997;SDS011;42890;44.244;22.530;2022-12-15T04:28:23;56.80;;;50.65;;
56997;SDS011;42890;44.244;22.530;2022-12-15T04:31:09;65.57;;;56.50;;
56997;SDS011;42890;44.244;22.530;2022-12-15T04:33:55;58.72;;;49.78;;
56997;SDS011;42890;44.244;22.530;2022-12-15T04:36:41;74.32;;;61.42;;
56997;SDS011;42890;44.244;22.530;2022-12-15T04:39:27;84.30;;;64.28;;
56997;SDS011;42890;44.244;22.530;2022-12-15T04:42:12;92.97;;;68.03;;
56997;SDS011;42890;44.244;22.530;2022-12-15T04:44:57;101.60;;;67.72;;
56997;SDS011;42890;44.244;22.530;2022-12-15T04:47:43;116.65;;;73.70;;
56997;SDS011;42890;44.244;22.530;2022-12-15T04:50:27;182.02;;;104.05;;
56997;SDS011;42890;44.244;22.530;2022-12-15T04:53:13;214.90;;;126.18;;
56997;SDS011;42890;44.244;22.530;2022-12-15T04:55:59;161.48;;;98.75;;
56997;SDS011;42890;44.244;22.530;2022-12-15T04:58:44;120.93;;;85.88;;
56997;SDS011;42890;44.244;22.530;2022-12-15T05:01:28;109.85;;;79.50;;
56997;SDS011;42890;44.244;22.530;2022-12-15T05:04:13;161.40;;;98.93;;
56997;SDS011;42890;44.244;22.530;2022-12-15T05:06:58;172.20;;;109.57;;
56997;SDS011;42890;44.244;22.530;2022-12-15T05:09:42;222.27;;;129.85;;
56997;SDS011;42890;44.244;22.530;2022-12-15T05:12:27;141.25;;;90.63;;
56997;SDS011;42890;44.244;22.530;2022-12-15T05:15:11;102.57;;;74.28;;
56997;SDS011;42890;44.244;22.530;2022-12-15T05:17:56;105.13;;;76.93;;
56997;SDS011;42890;44.244;22.530;2022-12-15T05:20:41;112.57;;;76.10;;
56997;SDS011;42890;44.244;22.530;2022-12-15T05:23:25;92.72;;;71.07;;
56997;SDS011;42890;44.244;22.530;2022-12-15T05:26:10;65.10;;;58.08;;
56997;SDS011;42890;44.244;22.530;2022-12-15T05:28:54;81.70;;;61.83;;
56997;SDS011;42890;44.244;22.530;2022-12-15T05:31:39;65.07;;;53.28;;
56997;SDS011;42890;44.244;22.530;2022-12-15T05:34:20;49.30;;;42.05;;
56997;SDS011;42890;44.244;22.530;2022-12-15T05:36:46;94.88;;;64.15;;
56997;SDS011;42890;44.244;22.530;2022-12-15T05:39:12;143.30;;;84.70;;
56997;SDS011;42890;44.244;22.530;2022-12-15T05:41:38;141.65;;;80.72;;
56997;SDS011;42890;44.244;22.530;2022-12-15T05:44:05;515.67;;;355.80;;
56997;SDS011;42890;44.244;22.530;2022-12-15T05:46:31;171.57;;;98.53;;
56997;SDS011;42890;44.244;22.530;2022-12-15T05:48:57;253.63;;;146.20;;
56997;SDS011;42890;44.244;22.530;2022-12-15T05:51:23;133.48;;;85.88;;
56997;SDS011;42890;44.244;22.530;2022-12-15T05:53:49;110.97;;;69.97;;
56997;SDS011;42890;44.244;22.530;2022-12-15T05:56:16;118.63;;;67.78;;
56997;SDS011;42890;44.244;22.530;2022-12-15T05:58:42;71.68;;;52.88;;
56997;SDS011;42890;44.244;22.530;2022-12-15T06:01:09;48.90;;;38.00;;
56997;SDS011;42890;44.244;22.530;2022-12-15T06:03:39;25.15;;;22.52;;
56997;SDS011;42890;44.244;22.530;2022-12-15T06:06:05;22.73;;;20.52;;
56997;SDS011;42890;44.244;22.530;2022-12-15T06:08:33;22.88;;;20.67;;
56997;SDS011;42890;44.244;22.530;2022-12-15T06:10:59;21.80;;;19.70;;
56997;SDS011;42890;44.244;22.530;2022-12-15T06:13:26;30.92;;;28.02;;
56997;SDS011;42890;44.244;22.530;2022-12-15T06:15:53;29.95;;;27.00;;
56997;SDS011;42890;44.244;22.530;2022-12-15T06:18:20;31.25;;;28.13;;
56997;SDS011;42890;44.244;22.530;2022-12-15T06:20:47;30.60;;;27.48;;
56997;SDS011;42890;44.244;22.530;2022-12-15T06:23:13;29.60;;;26.60;;
56997;SDS011;42890;44.244;22.530;2022-12-15T06:25:39;32.72;;;29.33;;
56997;SDS011;42890;44.244;22.530;2022-12-15T06:28:05;45.22;;;37.53;;
56997;SDS011;42890;44.244;22.530;2022-12-15T06:30:31;34.72;;;31.08;;
56997;SDS011;42890;44.244;22.530;2022-12-15T06:32:57;28.73;;;25.80;;
56997;SDS011;42890;44.244;22.530;2022-12-15T06:35:23;28.35;;;25.35;;
56997;SDS011;42890;44.244;22.530;2022-12-15T06:37:50;28.83;;;25.85;;
56997;SDS011;42890;44.244;22.530;2022-12-15T06:40:16;34.67;;;28.90;;
56997;SDS011;42890;44.244;22.530;2022-12-15T06:42:42;39.33;;;33.40;;
56997;SDS011;42890;44.244;22.530;2022-12-15T06:45:08;35.83;;;31.23;;
56997;SDS011;42890;44.244;22.530;2022-12-15T06:47:34;46.90;;;35.20;;
56997;SDS011;42890;44.244;22.530;2022-12-15T06:50:00;45.88;;;35.33;;
56997;SDS011;42890;44.244;22.530;2022-12-15T06:52:27;42.78;;;33.40;;
56997;SDS011;42890;44.244;22.530;2022-12-15T06:54:53;46.05;;;34.90;;
56997;SDS011;42890;44.244;22.530;2022-12-15T06:57:19;39.70;;;34.55;;
56997;SDS011;42890;44.244;22.530;2022-12-15T06:59:45;40.72;;;33.08;;
56997;SDS011;42890;44.244;22.530;2022-12-15T07:02:17;62.00;;;46.90;;
56997;SDS011;42890;44.244;22.530;2022-12-15T07:04:43;87.78;;;59.17;;
56997;SDS011;42890;44.244;22.530;2022-12-15T07:07:09;156.77;;;80.50;;
56997;SDS011;42890;44.244;22.530;2022-12-15T07:09:35;184.40;;;96.45;;
56997;SDS011;42890;44.244;22.530;2022-12-15T07:12:02;178.48;;;97.22;;
56997;SDS011;42890;44.244;22.530;2022-12-15T07:14:28;177.85;;;101.53;;
56997;SDS011;42890;44.244;22.530;2022-12-15T07:16:54;214.90;;;114.80;;
56997;SDS011;42890;44.244;22.530;2022-12-15T07:19:20;280.52;;;171.38;;
56997;SDS011;42890;44.244;22.530;2022-12-15T07:21:46;326.20;;;199.43;;
56997;SDS011;42890;44.244;22.530;2022-12-15T07:24:12;332.85;;;191.05;;
56997;SDS011;42890;44.244;22.530;2022-12-15T07:26:39;364.65;;;219.93;;
56997;SDS011;42890;44.244;22.530;2022-12-15T07:29:05;443.00;;;284.27;;
56997;SDS011;42890;44.244;22.530;2022-12-15T07:31:31;472.77;;;308.50;;
56997;SDS011;42890;44.244;22.530;2022-12-15T07:33:58;429.10;;;280.05;;
56997;SDS011;42890;44.244;22.530;2022-12-15T07:36:24;497.58;;;351.35;;
56997;SDS011;42890;44.244;22.530;2022-12-15T07:38:53;509.67;;;367.88;;
56997;SDS011;42890;44.244;22.530;2022-12-15T07:41:21;512.50;;;367.70;;
56997;SDS011;42890;44.244;22.530;2022-12-15T07:43:47;521.03;;;378.67;;
56997;SDS011;42890;44.244;22.530;2022-12-15T07:46:14;519.33;;;372.17;;
56997;SDS011;42890;44.244;22.530;2022-12-15T07:48:40;555.60;;;420.67;;
56997;SDS011;42890;44.244;22.530;2022-12-15T07:51:07;548.03;;;420.67;;
56997;SDS011;42890;44.244;22.530;2022-12-15T07:53:33;538.00;;;406.77;;
56997;SDS011;42890;44.244;22.530;2022-12-15T07:55:59;518.58;;;390.45;;
56997;SDS011;42890;44.244;22.530;2022-12-15T07:58:26;426.77;;;298.60;;
56997;SDS011;42890;44.244;22.530;2022-12-15T08:00:57;420.52;;;293.02;;
56997;SDS011;42890;44.244;22.530;2022-12-15T08:03:24;441.88;;;312.08;;
56997;SDS011;42890;44.244;22.530;2022-12-15T08:05:50;448.58;;;322.30;;
56997;SDS011;42890;44.244;22.530;2022-12-15T08:08:17;469.80;;;346.65;;
56997;SDS011;42890;44.244;22.530;2022-12-15T08:10:44;482.55;;;358.15;;
56997;SDS011;42890;44.244;22.530;2022-12-15T08:13:11;458.23;;;331.38;;
56997;SDS011;42890;44.244;22.530;2022-12-15T08:15:37;446.50;;;316.65;;
56997;SDS011;42890;44.244;22.530;2022-12-15T08:18:04;424.75;;;293.25;;
56997;SDS011;42890;44.244;22.530;2022-12-15T08:20:30;436.25;;;280.92;;
56997;SDS011;42890;44.244;22.530;2022-12-15T08:22:56;444.90;;;300.42;;
56997;SDS011;42890;44.244;22.530;2022-12-15T08:25:23;416.30;;;273.73;;
56997;SDS011;42890;44.244;22.530;2022-12-15T08:27:50;399.67;;;269.50;;
56997;SDS011;42890;44.244;22.530;2022-12-15T08:30:16;396.35;;;270.40;;
56997;SDS011;42890;44.244;22.530;2022-12-15T08:32:43;412.98;;;281.48;;
56997;SDS011;42890;44.244;22.530;2022-12-15T08:35:09;408.42;;;272.73;;
56997;SDS011;42890;44.244;22.530;2022-12-15T08:37:36;464.20;;;334.75;;
56997;SDS011;42890;44.244;22.530;2022-12-15T08:40:03;455.00;;;334.55;;
56997;SDS011;42890;44.244;22.530;2022-12-15T08:42:33;437.58;;;314.08;;
56997;SDS011;42890;44.244;22.530;2022-12-15T08:44:59;428.83;;;302.77;;
56997;SDS011;42890;44.244;22.530;2022-12-15T08:47:26;391.02;;;256.70;;
56997;SDS011;42890;44.244;22.530;2022-12-15T08:49:52;389.65;;;257.67;;
56997;SDS011;42890;44.244;22.530;2022-12-15T08:52:20;422.95;;;309.35;;
56997;SDS011;42890;44.244;22.530;2022-12-15T08:54:46;437.70;;;320.90;;
56997;SDS011;42890;44.244;22.530;2022-12-15T08:57:12;435.27;;;320.40;;
56997;SDS011;42890;44.244;22.530;2022-12-15T08:59:38;431.17;;;313.92;;
56997;SDS011;42890;44.244;22.530;2022-12-15T09:02:05;426.98;;;310.30;;
56997;SDS011;42890;44.244;22.530;2022-12-15T09:04:31;422.23;;;297.48;;
56997;SDS011;42890;44.244;22.530;2022-12-15T09:06:58;378.95;;;267.98;;
56997;SDS011;42890;44.244;22.530;2022-12-15T09:09:24;383.23;;;268.13;;
56997;SDS011;42890;44.244;22.530;2022-12-15T09:11:50;336.48;;;230.50;;
56997;SDS011;42890;44.244;22.530;2022-12-15T09:14:16;245.80;;;170.07;;
56997;SDS011;42890;44.244;22.530;2022-12-15T09:16:43;233.77;;;154.05;;
56997;SDS011;42890;44.244;22.530;2022-12-15T09:19:10;208.05;;;142.50;;
56997;SDS011;42890;44.244;22.530;2022-12-15T09:21:36;172.50;;;116.05;;
56997;SDS011;42890;44.244;22.530;2022-12-15T09:24:03;126.63;;;93.65;;
56997;SDS011;42890;44.244;22.530;2022-12-15T09:26:31;141.27;;;98.30;;
56997;SDS011;42890;44.244;22.530;2022-12-15T09:28:57;82.05;;;73.18;;
56997;SDS011;42890;44.244;22.530;2022-12-15T09:31:27;74.38;;;66.30;;
56997;SDS011;42890;44.244;22.530;2022-12-15T09:33:54;59.97;;;52.85;;
56997;SDS011;42890;44.244;22.530;2022-12-15T09:36:21;121.18;;;89.80;;
56997;SDS011;42890;44.244;22.530;2022-12-15T09:38:48;125.93;;;94.47;;
56997;SDS011;42890;44.244;22.530;2022-12-15T09:43:51;130.10;;;83.95;;
56997;SDS011;42890;44.244;22.530;2022-12-15T09:48:47;179.77;;;86.55;;
56997;SDS011;42890;44.244;22.530;2022-12-15T09:51:16;74.97;;;63.28;;
56997;SDS011;42890;44.244;22.530;2022-12-15T09:53:43;147.57;;;99.55;;
56997;SDS011;42890;44.244;22.530;2022-12-15T09:56:12;131.30;;;91.93;;
56997;SDS011;42890;44.244;22.530;2022-12-15T09:59:02;117.47;;;83.85;;
56997;SDS011;42890;44.244;22.530;2022-12-15T10:01:31;122.30;;;86.53;;
56997;SDS011;42890;44.244;22.530;2022-12-15T10:09:46;139.30;;;97.05;;
56997;SDS011;42890;44.244;22.530;2022-12-15T10:12:06;138.27;;;96.45;;
56997;SDS011;42890;44.244;22.530;2022-12-15T10:17:23;46.63;;;42.13;;
56997;SDS011;42890;44.244;22.530;2022-12-15T10:22:23;55.72;;;50.22;;
56997;SDS011;42890;44.244;22.530;2022-12-15T10:45:40;657.55;;;457.23;;
56997;SDS011;42890;44.244;22.530;2022-12-15T10:56:28;299.75;;;187.15;;
56997;SDS011;42890;44.244;22.530;2022-12-15T10:58:55;229.75;;;140.48;;
56997;SDS011;42890;44.244;22.530;2022-12-15T11:01:28;170.65;;;115.30;;
56997;SDS011;42890;44.244;22.530;2022-12-15T11:03:56;117.65;;;81.30;;
56997;SDS011;42890;44.244;22.530;2022-12-15T11:06:26;140.63;;;88.45;;
56997;SDS011;42890;44.244;22.530;2022-12-15T11:08:53;91.40;;;66.15;;
56997;SDS011;42890;44.244;22.530;2022-12-15T11:11:30;95.20;;;70.50;;
56997;SDS011;42890;44.244;22.530;2022-12-15T11:14:20;139.40;;;92.90;;
56997;SDS011;42890;44.244;22.530;2022-12-15T11:16:53;143.45;;;96.43;;
56997;SDS011;42890;44.244;22.530;2022-12-15T11:22:22;50.30;;;44.67;;
56997;SDS011;42890;44.244;22.530;2022-12-15T11:24:53;94.78;;;72.57;;
56997;SDS011;42890;44.244;22.530;2022-12-15T11:27:24;104.07;;;81.88;;
56997;SDS011;42890;44.244;22.530;2022-12-15T11:30:00;72.78;;;65.65;;
56997;SDS011;42890;44.244;22.530;2022-12-15T11:32:27;71.20;;;61.83;;
56997;SDS011;42890;44.244;22.530;2022-12-15T11:34:54;56.95;;;50.72;;
56997;SDS011;42890;44.244;22.530;2022-12-15T11:55:46;43.55;;;39.25;;
56997;SDS011;42890;44.244;22.530;2022-12-15T11:58:19;32.45;;;29.33;;
56997;SDS011;42890;44.244;22.530;2022-12-15T12:00:59;30.35;;;27.42;;
56997;SDS011;42890;44.244;22.530;2022-12-15T12:04:05;28.45;;;25.75;;
56997;SDS011;42890;44.244;22.530;2022-12-15T12:06:28;39.33;;;35.40;;
56997;SDS011;42890;44.244;22.530;2022-12-15T12:14:04;30.60;;;27.83;;
56997;SDS011;42890;44.244;22.530;2022-12-15T12:16:38;39.33;;;35.42;;
56997;SDS011;42890;44.244;22.530;2022-12-15T12:19:08;37.28;;;33.70;;
56997;SDS011;42890;44.244;22.530;2022-12-15T12:21:45;42.00;;;37.80;;
56997;SDS011;42890;44.244;22.530;2022-12-15T12:26:43;40.70;;;36.70;;
56997;SDS011;42890;44.244;22.530;2022-12-15T12:29:12;46.80;;;42.30;;
56997;SDS011;42890;44.244;22.530;2022-12-15T12:34:24;44.10;;;40.03;;
56997;SDS011;42890;44.244;22.530;2022-12-15T12:36:51;22.40;;;19.33;;
56997;SDS011;42890;44.244;22.530;2022-12-15T12:39:20;22.63;;;20.48;;
56997;SDS011;42890;44.244;22.530;2022-12-15T12:41:54;23.48;;;21.33;;
56997;SDS011;42890;44.244;22.530;2022-12-15T12:46:56;19.38;;;17.60;;
56997;SDS011;42890;44.244;22.530;2022-12-15T12:52:19;20.38;;;18.38;;
56997;SDS011;42890;44.244;22.530;2022-12-15T12:54:48;20.83;;;18.77;;
56997;SDS011;42890;44.244;22.530;2022-12-15T12:59:51;19.60;;;17.88;;
56997;SDS011;42890;44.244;22.530;2022-12-15T13:12:34;21.40;;;19.33;;
56997;SDS011;42890;44.244;22.530;2022-12-15T13:17:47;22.42;;;20.42;;
56997;SDS011;42890;44.244;22.530;2022-12-15T13:20:20;22.70;;;20.55;;
56997;SDS011;42890;44.244;22.530;2022-12-15T13:22:46;20.88;;;18.67;;
56997;SDS011;42890;44.244;22.530;2022-12-15T13:27:57;18.58;;;16.73;;
56997;SDS011;42890;44.244;22.530;2022-12-15T13:30:25;19.13;;;17.23;;
56997;SDS011;42890;44.244;22.530;2022-12-15T13:32:52;19.67;;;17.55;;
56997;SDS011;42890;44.244;22.530;2022-12-15T13:35:28;15.80;;;14.32;;
56997;SDS011;42890;44.244;22.530;2022-12-15T13:37:59;16.95;;;15.10;;
56997;SDS011;42890;44.244;22.530;2022-12-15T13:40:48;17.10;;;15.50;;
56997;SDS011;42890;44.244;22.530;2022-12-15T13:45:58;17.15;;;15.45;;
56997;SDS011;42890;44.244;22.530;2022-12-15T13:48:35;18.05;;;16.35;;
56997;SDS011;42890;44.244;22.530;2022-12-15T13:53:41;15.75;;;14.20;;
56997;SDS011;42890;44.244;22.530;2022-12-15T13:58:42;15.45;;;13.88;;
56997;SDS011;42890;44.244;22.530;2022-12-15T14:01:23;14.50;;;13.10;;
56997;SDS011;42890;44.244;22.530;2022-12-15T14:04:08;15.80;;;14.32;;
56997;SDS011;42890;44.244;22.530;2022-12-15T14:06:43;16.52;;;15.13;;
56997;SDS011;42890;44.244;22.530;2022-12-15T14:09:11;14.45;;;13.15;;
56997;SDS011;42890;44.244;22.530;2022-12-15T14:11:38;16.08;;;14.55;;
56997;SDS011;42890;44.244;22.530;2022-12-15T14:14:05;16.73;;;15.13;;
56997;SDS011;42890;44.244;22.530;2022-12-15T14:16:39;18.08;;;16.48;;
56997;SDS011;42890;44.244;22.530;2022-12-15T14:19:15;18.23;;;16.52;;
56997;SDS011;42890;44.244;22.530;2022-12-15T14:21:52;17.33;;;15.82;;
56997;SDS011;42890;44.244;22.530;2022-12-15T14:24:23;19.58;;;17.15;;
56997;SDS011;42890;44.244;22.530;2022-12-15T14:26:49;19.70;;;17.60;;
56997;SDS011;42890;44.244;22.530;2022-12-15T14:29:16;16.73;;;15.13;;
56997;SDS011;42890;44.244;22.530;2022-12-15T14:31:49;19.02;;;17.23;;
56997;SDS011;42890;44.244;22.530;2022-12-15T14:36:45;19.90;;;18.00;;
56997;SDS011;42890;44.244;22.530;2022-12-15T14:39:25;20.77;;;18.85;;
56997;SDS011;42890;44.244;22.530;2022-12-15T14:41:52;21.08;;;19.08;;
56997;SDS011;42890;44.244;22.530;2022-12-15T14:44:26;21.50;;;19.50;;
56997;SDS011;42890;44.244;22.530;2022-12-15T14:46:53;24.70;;;22.10;;
56997;SDS011;42890;44.244;22.530;2022-12-15T14:49:20;26.42;;;23.95;;
56997;SDS011;42890;44.244;22.530;2022-12-15T14:51:47;207.73;;;84.07;;
56997;SDS011;42890;44.244;22.530;2022-12-15T14:57:00;117.07;;;61.80;;
56997;SDS011;42890;44.244;22.530;2022-12-15T14:59:31;54.20;;;39.58;;
56997;SDS011;42890;44.244;22.530;2022-12-15T15:02:00;29.50;;;26.30;;
56997;SDS011;42890;44.244;22.530;2022-12-15T15:04:32;23.75;;;21.55;;
56997;SDS011;42890;44.244;22.530;2022-12-15T15:06:59;20.92;;;18.92;;
56997;SDS011;42890;44.244;22.530;2022-12-15T15:09:27;23.63;;;21.42;;
56997;SDS011;42890;44.244;22.530;2022-12-15T15:12:01;24.48;;;22.17;;
56997;SDS011;42890;44.244;22.530;2022-12-15T15:14:31;25.02;;;22.73;;
56997;SDS011;42890;44.244;22.530;2022-12-15T15:17:01;25.10;;;22.75;;
56997;SDS011;42890;44.244;22.530;2022-12-15T15:19:28;24.42;;;22.13;;
56997;SDS011;42890;44.244;22.530;2022-12-15T15:21:54;25.25;;;22.52;;
56997;SDS011;42890;44.244;22.530;2022-12-15T15:24:23;23.67;;;21.48;;
56997;SDS011;42890;44.244;22.530;2022-12-15T15:26:50;24.52;;;22.23;;
56997;SDS011;42890;44.244;22.530;2022-12-15T15:32:17;26.70;;;24.05;;
56997;SDS011;42890;44.244;22.530;2022-12-15T15:34:44;26.90;;;24.10;;
56997;SDS011;42890;44.244;22.530;2022-12-15T15:37:15;26.05;;;23.48;;
56997;SDS011;42890;44.244;22.530;2022-12-15T15:39:42;25.92;;;23.23;;
56997;SDS011;42890;44.244;22.530;2022-12-15T15:42:11;22.20;;;20.02;;
56997;SDS011;42890;44.244;22.530;2022-12-15T15:44:37;32.55;;;20.42;;
56997;SDS011;42890;44.244;22.530;2022-12-15T15:47:04;21.73;;;19.67;;
56997;SDS011;42890;44.244;22.530;2022-12-15T15:49:31;25.40;;;22.65;;
56997;SDS011;42890;44.244;22.530;2022-12-15T15:51:58;44.55;;;37.17;;
56997;SDS011;42890;44.244;22.530;2022-12-15T15:54:26;57.38;;;51.05;;
56997;SDS011;42890;44.244;22.530;2022-12-15T15:57:01;121.68;;;76.32;;
56997;SDS011;42890;44.244;22.530;2022-12-15T15:59:27;28.25;;;25.38;;
56997;SDS011;42890;44.244;22.530;2022-12-15T16:01:53;20.85;;;18.85;;
56997;SDS011;42890;44.244;22.530;2022-12-15T16:04:20;21.63;;;19.52;;
56997;SDS011;42890;44.244;22.530;2022-12-15T16:06:47;22.65;;;20.23;;
56997;SDS011;42890;44.244;22.530;2022-12-15T16:09:14;22.27;;;20.00;;
56997;SDS011;42890;44.244;22.530;2022-12-15T16:11:40;24.50;;;19.45;;
56997;SDS011;42890;44.244;22.530;2022-12-15T16:14:14;21.77;;;19.65;;
56997;SDS011;42890;44.244;22.530;2022-12-15T16:16:40;22.35;;;20.15;;
56997;SDS011;42890;44.244;22.530;2022-12-15T16:19:06;26.80;;;24.27;;
56997;SDS011;42890;44.244;22.530;2022-12-15T16:21:32;38.53;;;34.55;;
56997;SDS011;42890;44.244;22.530;2022-12-15T16:23:59;75.13;;;58.72;;
56997;SDS011;42890;44.244;22.530;2022-12-15T16:26:31;60.65;;;53.92;;
56997;SDS011;42890;44.244;22.530;2022-12-15T16:28:57;120.65;;;84.60;;
56997;SDS011;42890;44.244;22.530;2022-12-15T16:31:34;190.65;;;132.23;;
56997;SDS011;42890;44.244;22.530;2022-12-15T16:34:01;47.00;;;36.45;;
56997;SDS011;42890;44.244;22.530;2022-12-15T16:36:27;32.22;;;26.80;;
56997;SDS011;42890;44.244;22.530;2022-12-15T16:38:53;38.72;;;34.08;;
56997;SDS011;42890;44.244;22.530;2022-12-15T16:41:19;24.77;;;22.17;;
56997;SDS011;42890;44.244;22.530;2022-12-15T16:43:47;23.77;;;19.55;;